Latest Weather Observations for Leinster

IDW60801

Issued at 6:05 pm WST Friday 24 October 2014 (issued every 30 minutes, with the page automatically refreshed every 10 minutes)

About weather observations | Map of weather stations | Latest weather observations for WA | Other Formats
Station Details ID: 012314 Name: LEINSTER AERO Lat: -27.84 Lon: 120.70 Height: 497.0 m
Data from the previous 72 hours. | See also: Recent months at Leinster
Date/Time
WST
Temp
°C
App
Temp
°C
Dew
Point
Rel
Hum
%
Delta-T
°C
Wind Press
QNH
hPa
Press
MSL
hPa
Rain
since 9 am
mm
Dir
 
Spd
km/h
Gust
km/h
Spd
kts
Gust
kts
24/06:00pm 33.3 28.9 0.1 12 16.6 WSW 13 19 7 10 1012.0 1009.6 0.0
24/05:30pm 34.4 29.0 -1.6 10 17.7 WNW 17 22 9 12 1011.7 1009.4 0.0
24/05:00pm 34.7 30.1 -1.4 10 17.8 W 13 17 7 9 1011.7 1009.4 0.0
24/04:30pm 35.0 30.8 -1.1 10 17.9 NW 11 20 6 11 1011.6 1009.3 0.0
24/04:00pm 34.6 28.0 -0.1 11 17.5 NW 24 32 13 17 1011.9 1009.5 0.0
24/03:30pm 34.7 28.7 -1.4 10 17.8 WNW 20 30 11 16 1012.2 1009.8 0.0
24/03:00pm 34.8 30.0 0.0 11 17.6 WNW 15 24 8 13 1012.4 1010.0 0.0
24/02:30pm 34.8 31.1 0.0 11 17.6 W 9 20 5 11 1012.7 1010.4 0.0
24/02:00pm 35.2 29.8 -1.0 10 18.0 NW 17 37 9 20 1013.0 1010.7 0.0
24/01:30pm 32.9 28.4 1.9 14 15.9 N 15 26 8 14 1013.4 1011.1 0.0
24/01:00pm 33.2 28.3 2.1 14 16.1 NW 17 24 9 13 1013.8 1011.5 0.0
24/12:30pm 32.8 27.9 1.8 14 15.9 N 17 30 9 16 1014.4 1012.1 0.0
24/12:00pm 31.8 27.4 2.9 16 15.0 NNE 15 24 8 13 1014.9 1012.6 0.0
24/11:30am 31.6 28.3 4.4 18 14.5 N 11 19 6 10 1015.4 1013.1 0.0
24/11:00am 30.4 26.4 2.6 17 14.2 ENE 13 22 7 12 1015.8 1013.5 0.0
24/10:30am 29.8 25.6 3.7 19 13.6 E 15 22 8 12 1016.0 1013.7 0.0
24/10:00am 29.3 25.9 4.0 20 13.2 E 11 19 6 10 1016.4 1014.1 0.0
24/09:30am 27.9 23.5 4.9 23 12.1 E 17 24 9 13 1016.8 1014.5 0.0
24/09:00am 27.2 23.3 5.5 25 11.5 ESE 15 24 8 13 1016.9 1014.6 0.0
24/08:30am 26.0 21.8 5.6 27 10.7 ESE 17 24 9 13 1016.7 1014.4 0.0
24/08:00am 24.5 20.6 5.3 29 9.9 ESE 15 20 8 11 1016.8 1014.5 0.0
24/07:30am 22.9 18.7 5.8 33 8.9 E 17 22 9 12 1016.5 1014.2 0.0
24/07:00am 21.0 16.9 6.2 38 7.6 SE 17 20 9 11 1016.7 1014.4 0.0
24/06:30am 19.7 16.7 6.1 41 6.9 SE 11 15 6 8 1016.6 1014.3 0.0
24/06:00am 18.0 15.9 6.5 47 5.8 ESE 7 9 4 5 1016.3 1014.0 0.0
24/05:30am 17.2 14.6 6.1 48 5.6 E 9 11 5 6 1016.2 1013.9 0.0
24/05:00am 16.9 14.6 5.5 47 5.6 E 7 9 4 5 1015.8 1013.5 0.0
24/04:30am 16.8 14.6 5.1 46 5.7 ESE 6 9 3 5 1015.5 1013.2 0.0
24/04:00am 17.5 15.1 5.1 44 6.1 SE 7 9 4 5 1015.4 1013.1 0.0
24/03:30am 17.8 15.4 5.1 43 6.3 SE 7 9 4 5 1015.2 1012.9 0.0
24/03:00am 18.1 15.7 5.3 43 6.4 SE 7 9 4 5 1015.1 1012.8 0.0
24/02:30am 17.2 15.1 5.8 47 5.7 SE 6 9 3 5 1015.1 1012.8 0.0
24/02:00am 16.8 14.9 6.6 51 5.2 S 6 7 3 4 1015.1 1012.8 0.0
24/01:30am 16.8 16.1 6.9 52 5.0 CALM 0 0 0 0 1015.2 1012.9 0.0
24/01:00am 18.2 16.4 5.4 43 6.4 S 4 7 2 4 1015.4 1013.1 0.0
24/12:30am 18.9 16.9 7.0 46 6.1 SSE 7 9 4 5 1015.5 1013.2 0.0
24/12:00am 18.1 17.4 6.9 48 5.7 S 0 6 0 3 1015.6 1013.3 0.0
 
Date/Time
WST
Temp
°C
App
Temp
°C
Dew
Point
Rel
Hum
%
Delta-T
°C
Wind Press
QNH
hPa
Press
MSL
hPa
Rain
since 9 am
mm
Dir
 
Spd
km/h
Gust
km/h
Spd
kts
Gust
kts
23/11:30pm 19.3 17.6 5.7 41 6.9 S 4 6 2 3 1015.7 1013.4 0.0
23/11:00pm 20.7 17.3 3.9 33 8.3 SSW 11 13 6 7 1015.6 1013.3 0.0
23/10:30pm 20.4 17.8 4.4 35 7.9 S 7 7 4 4 1015.8 1013.5 0.0
23/10:00pm 21.6 19.1 4.7 33 8.5 SSW 7 9 4 5 1015.9 1013.6 0.0
23/09:30pm 21.3 18.7 4.4 33 8.4 SW 7 9 4 5 1015.9 1013.6 0.0
23/09:00pm 23.1 20.5 4.1 29 9.5 SSW 7 9 4 5 1015.7 1013.4 0.0
23/08:30pm 24.6 21.1 1.5 22 11.2 S 9 11 5 6 1015.5 1013.2 0.0
23/08:00pm 25.5 21.9 0.9 20 11.8 S 9 11 5 6 1015.2 1012.9 0.0
23/07:30pm 26.3 22.2 0.1 18 12.5 SW 11 15 6 8 1015.1 1012.8 0.0
23/07:00pm 27.4 22.5 -0.6 16 13.3 SW 15 22 8 12 1014.7 1012.4 0.0
23/06:30pm 28.3 22.8 0.9 17 13.5 SSW 19 24 10 13 1014.2 1011.8 0.0
23/06:00pm 29.4 24.3 1.0 16 14.1 SSW 17 24 9 13 1013.6 1011.3 0.0
23/05:30pm 31.2 25.6 -2.7 11 16.0 W 17 28 9 15 1013.1 1010.8 0.0
23/05:00pm 31.6 27.2 -2.4 11 16.1 W 11 22 6 12 1012.8 1010.5 0.0
23/04:30pm 31.3 25.2 -2.6 11 16.0 WNW 20 35 11 19 1012.8 1010.5 0.0
23/04:00pm 31.7 25.4 -1.2 12 16.0 W 22 35 12 19 1012.8 1010.5 0.0
23/03:30pm 31.1 27.0 2.3 16 14.7 WNW 13 24 7 13 1012.7 1010.4 0.0
23/03:00pm 31.1 26.6 4.0 18 14.3 W 17 24 9 13 1012.8 1010.5 0.0
23/02:30pm 31.0 25.6 4.7 19 14.0 W 22 33 12 18 1013.1 1010.8 0.0
23/02:00pm 30.2 26.5 6.1 22 13.1 WNW 15 24 8 13 1013.5 1011.2 0.0
23/01:30pm 29.9 25.0 5.2 21 13.2 W 20 32 11 17 1013.7 1011.4 0.0
23/01:00pm 29.5 25.4 6.2 23 12.6 W 17 26 9 14 1014.1 1011.7 0.0
23/12:30pm 28.3 25.3 7.5 27 11.4 WSW 13 22 7 12 1014.6 1012.3 0.0
23/12:00pm 26.8 25.1 8.3 31 10.2 WNW 7 17 4 9 1014.9 1012.6 0.0
23/11:30am 26.8 25.3 8.3 31 10.2 E 6 17 3 9 1015.5 1013.2 0.0
23/11:00am 25.3 23.0 7.4 32 9.7 SSW 9 19 5 10 1015.9 1013.6 0.0
23/10:30am 24.8 21.7 7.4 33 9.4 W 13 19 7 10 1016.4 1014.1 0.0
23/10:00am 23.3 20.2 7.4 36 8.5 SW 13 20 7 11 1016.9 1014.6 0.0
23/09:30am 22.6 18.7 7.2 37 8.2 SSW 17 22 9 12 1017.3 1015.0 0.0
23/09:00am 22.8 18.9 7.0 36 8.3 SW 17 26 9 14 1017.5 1015.2 0.0
23/08:30am 21.7 17.7 6.8 38 7.8 SSW 17 22 9 12 1017.4 1015.1 0.0
23/08:00am 21.5 17.0 7.0 39 7.6 SSW 20 28 11 15 1017.2 1014.9 0.0
23/07:30am 20.9 16.6 6.8 40 7.3 SSW 19 26 10 14 1017.2 1014.9 0.0
23/07:00am 20.6 16.8 7.6 43 6.9 S 17 24 9 13 1017.0 1014.7 0.0
23/06:30am 20.3 16.8 8.9 48 6.2 S 17 22 9 12 1016.7 1014.4 0.0
23/06:00am 19.8 17.3 9.7 52 5.5 SSE 13 17 7 9 1016.4 1014.1 0.0
23/05:30am 19.5 16.6 9.7 53 5.3 S 15 20 8 11 1015.8 1013.5 0.0
23/05:00am 19.8 16.5 9.7 52 5.5 SSW 17 24 9 13 1015.5 1013.2 0.0
23/04:30am 20.4 17.0 9.0 48 6.2 SSW 17 28 9 15 1015.2 1012.9 0.0
23/04:00am 21.0 16.9 8.0 43 6.9 SW 19 28 10 15 1015.1 1012.8 0.0
23/03:30am 22.0 17.5 7.0 38 7.9 WSW 20 26 11 14 1014.6 1012.3 0.0
23/03:00am 22.8 19.9 6.6 35 8.5 W 11 17 6 9 1014.1 1011.7 0.0
23/02:30am 23.5 19.4 6.3 33 9.0 W 17 26 9 14 1013.7 1011.4 0.0
23/02:00am 23.5 19.0 6.3 33 9.0 W 19 22 10 12 1013.5 1011.2 0.0
23/01:30am 23.2 19.6 6.9 35 8.6 WNW 15 19 8 10 1013.8 1011.5 0.0
23/01:00am 23.8 20.5 6.6 33 9.1 NW 13 19 7 10 1014.4 1012.1 0.0
23/12:30am 24.4 21.1 6.6 32 9.4 WNW 13 15 7 8 1014.3 1011.9 0.0
23/12:00am 24.6 20.9 6.4 31 9.6 WNW 15 20 8 11 1014.8 1012.5 0.0
 
Date/Time
WST
Temp
°C
App
Temp
°C
Dew
Point
Rel
Hum
%
Delta-T
°C
Wind Press
QNH
hPa
Press
MSL
hPa
Rain
since 9 am
mm
Dir
 
Spd
km/h
Gust
km/h
Spd
kts
Gust
kts
22/11:30pm 24.5 21.6 6.7 32 9.5 NW 11 13 6 7 1014.8 1012.5 0.0
22/11:00pm 25.5 22.1 5.7 28 10.4 WNW 13 17 7 9 1015.0 1012.7 0.0
22/10:30pm 26.0 22.5 5.6 27 10.7 NW 13 17 7 9 1015.5 1013.2 0.0
22/10:00pm 26.7 22.7 5.1 25 11.3 NW 15 20 8 11 1015.5 1013.2 0.0
22/09:30pm 27.4 23.3 4.5 23 11.9 NW 15 20 8 11 1015.5 1013.2 0.0
22/09:00pm 27.3 24.0 4.4 23 11.9 NW 11 15 6 8 1015.5 1013.2 0.0
22/08:30pm 27.9 23.8 4.2 22 12.3 NW 15 19 8 10 1015.7 1013.4 0.0
22/08:00pm 28.0 23.9 4.3 22 12.3 NW 15 19 8 10 1015.6 1013.3 0.0
22/07:30pm 28.0 24.3 4.3 22 12.3 NW 13 17 7 9 1015.5 1013.2 0.0
22/07:00pm 28.3 25.0 4.6 22 12.4 NW 11 15 6 8 1015.5 1013.2 0.0
22/06:30pm 29.0 25.4 3.1 19 13.3 WNW 11 17 6 9 1015.3 1013.0 0.0
22/06:00pm 30.0 25.5 2.3 17 14.1 WNW 15 22 8 12 1014.9 1012.6 0.0
22/05:30pm 30.9 24.8 0.3 14 15.1 WNW 22 33 12 18 1014.8 1012.5 0.0
22/05:00pm 32.1 24.7 -3.3 10 16.6 NW 26 37 14 20 1014.4 1012.1 0.0
22/04:30pm 32.6 26.0 -2.9 10 16.8 NW 22 33 12 18 1014.4 1012.1 0.0
22/04:00pm 32.8 25.5 -2.8 10 16.9 NNW 26 37 14 20 1014.4 1012.1 0.0
22/03:33pm 33.1 25.1 -2.6 10 17.1 N 30 48 16 26 1014.3 1011.9 0.0
22/03:30pm 33.2 25.6 -2.5 10 17.1 NNW 28 43 15 23 1014.4 1012.1 0.0
22/03:00pm 33.9 27.5 -2.0 10 17.4 NNW 22 33 12 18 1014.4 1012.1 0.0
22/02:30pm 33.3 26.2 -1.1 11 16.9 N 26 39 14 21 1014.6 1012.3 0.0
22/02:10pm 33.4 26.0 -1.0 11 16.9 N 28 48 15 26 1014.6 1012.3 0.0
22/02:00pm 34.0 27.4 -0.6 11 17.2 N 24 35 13 19 1014.9 1012.6 0.0
22/01:30pm 33.1 27.0 3.0 15 15.8 N 24 37 13 20 1015.6 1013.3 0.0
22/01:00pm 32.9 26.1 2.9 15 15.7 N 28 43 15 23 1016.0 1013.7 0.0
22/12:49pm 33.1 26.3 3.0 15 15.8 N 28 50 15 27 1016.2 1013.9 0.0
22/12:30pm 32.4 26.6 4.2 17 15.0 N 24 39 13 21 1016.6 1014.3 0.0
22/12:00pm 32.3 26.3 3.3 16 15.2 NNE 24 35 13 19 1017.0 1014.7 0.0
22/11:30am 31.4 25.9 5.8 20 13.9 NNE 24 35 13 19 1017.3 1015.0 0.0
22/11:00am 30.6 25.5 5.8 21 13.4 NNE 22 35 12 19 1017.7 1015.4 0.0
22/10:30am 29.2 23.3 6.0 23 12.5 NNE 26 41 14 22 1018.1 1015.9 0.0
22/10:00am 28.5 24.2 7.7 27 11.5 NE 20 32 11 17 1018.4 1016.1 0.0
22/09:30am 27.1 22.5 8.0 30 10.5 NE 22 35 12 19 1018.6 1016.3 0.0
22/09:00am 25.1 18.9 7.7 33 9.4 ENE 30 41 16 22 1018.6 1016.3 0.0
22/08:30am 24.0 17.7 7.6 35 8.8 ENE 30 41 16 22 1018.6 1016.3 0.0
22/08:00am 23.2 17.6 7.3 36 8.5 ENE 26 43 14 23 1018.5 1016.2 0.0
22/07:30am 22.3 17.7 8.1 40 7.6 ENE 22 33 12 18 1018.6 1016.3 0.0
22/07:00am 20.9 16.8 8.5 45 6.7 ENE 20 32 11 17 1018.4 1016.1 0.0
22/06:30am 19.4 15.3 8.7 50 5.7 E 20 28 11 15 1018.4 1016.1 0.0
22/06:00am 18.6 15.1 8.8 53 5.2 E 17 24 9 13 1018.3 1016.0 0.0
22/05:30am 17.4 14.4 9.1 58 4.4 E 15 20 8 11 1017.9 1015.7 0.0
22/05:00am 17.4 14.7 9.1 58 4.4 E 13 17 7 9 1017.7 1015.4 0.0
22/04:30am 17.7 15.4 9.1 57 4.6 E 11 19 6 10 1017.7 1015.4 0.0
22/04:00am 17.7 15.4 9.1 57 4.6 E 11 17 6 9 1017.6 1015.3 0.0
22/03:30am 18.1 15.4 8.9 55 4.9 E 13 15 7 8 1017.5 1015.2 0.0
22/03:00am 18.5 15.8 9.0 54 5.1 E 13 17 7 9 1017.6 1015.3 0.0
22/02:30am 18.4 16.7 9.7 57 4.7 E 9 13 5 7 1017.7 1015.4 0.0
22/02:00am 18.6 16.6 10.2 58 4.6 E 11 13 6 7 1017.7 1015.4 0.0
22/01:30am 18.9 17.0 10.5 58 4.6 E 11 15 6 8 1017.8 1015.5 0.0
22/01:00am 19.2 17.7 10.5 57 4.8 E 9 13 5 7 1018.1 1015.9 0.0
22/12:30am 19.8 18.2 10.2 54 5.3 E 9 13 5 7 1018.3 1016.0 0.0
22/12:00am 20.3 18.7 10.1 52 5.6 ESE 9 15 5 8 1018.4 1016.1 0.0
 
Date/Time
WST
Temp
°C
App
Temp
°C
Dew
Point
Rel
Hum
%
Delta-T
°C
Wind Press
QNH
hPa
Press
MSL
hPa
Rain
since 9 am
mm
Dir
 
Spd
km/h
Gust
km/h
Spd
kts
Gust
kts
21/11:30pm 20.3 18.5 9.5 50 5.9 E 9 13 5 7 1019.0 1016.7 0.0
21/11:00pm 21.1 18.3 8.7 45 6.7 E 13 17 7 9 1019.2 1016.9 0.0
21/10:30pm 21.4 19.3 8.3 43 7.0 E 9 13 5 7 1019.3 1017.0 0.0
21/10:00pm 22.1 19.9 7.9 40 7.6 ESE 9 13 5 7 1019.4 1017.1 0.0
21/09:30pm 22.6 20.4 8.0 39 7.9 ESE 9 13 5 7 1019.9 1017.7 0.0
21/09:00pm 23.4 21.0 7.1 35 8.6 E 9 13 5 7 1019.8 1017.6 0.0
21/08:30pm 23.9 21.6 7.5 35 8.8 E 9 13 5 7 1020.0 1017.8 0.0
21/08:00pm 24.5 21.9 7.6 34 9.1 E 11 13 6 7 1019.9 1017.7 0.0
21/07:30pm 25.1 22.4 7.3 32 9.6 E 11 13 6 7 1019.5 1017.2 0.0
21/07:00pm 26.0 23.2 7.1 30 10.2 E 11 15 6 8 1019.4 1017.1 0.0
21/06:30pm 26.9 24.1 6.9 28 10.8 E 11 13 6 7 1019.0 1016.7 0.0

Other Formats:

Comma delimited format used in spreadsheet applications
http://www.bom.gov.au/fwo/IDW60801/IDW60801.95448.axf

JavaScript Object Notation format (JSON) in row-major order
http://www.bom.gov.au/fwo/IDW60801/IDW60801.95448.json